Time;durP1;ratioP1;P1;durP2;ratioP2;P2;SDS_P1;SDS_P2;PMS_P1;PMS_P2;Temp;Humidity;BMP_temperature;BMP_pressure;BME280_temperature;BME280_humidity;BME280_pressure;Samples;Min_cycle;Max_cycle;Signal;HPM_P1;HPM_P2
2022/06/18 00:00:44;;;;;;;5.85;4.03;;;;;;;12.56;100.00;100290.50;5103494;28;20044;-64
2022/06/18 00:03:29;;;;;;;5.68;3.85;;;;;;;12.51;100.00;100280.13;5100032;28;20044;-64
2022/06/18 00:06:14;;;;;;;7.28;4.85;;;;;;;12.54;100.00;100280.00;5096738;28;20043;-64
2022/06/18 00:09:00;;;;;;;6.07;4.25;;;;;;;12.54;100.00;100284.41;5096597;28;20051;-64
2022/06/18 00:14:48;;;;;;;7.25;4.38;;;;;;;12.51;100.00;100271.34;5100721;28;20093;-64
2022/06/18 00:17:32;;;;;;;5.43;4.15;;;;;;;12.36;100.00;100262.13;5100111;28;20063;-63
2022/06/18 00:20:19;;;;;;;8.45;4.53;;;;;;;12.42;100.00;100277.72;5110219;27;20047;-64
2022/06/18 00:23:10;;;;;;;5.78;4.32;;;;;;;12.40;100.00;100277.75;5108509;28;20074;-63
2022/06/18 00:25:55;;;;;;;7.90;4.47;;;;;;;12.46;100.00;100268.00;5126793;27;20042;-64
2022/06/18 00:28:40;;;;;;;8.65;4.40;;;;;;;12.35;100.00;100276.16;5114348;27;20106;-64
2022/06/18 00:31:24;;;;;;;6.45;4.45;;;;;;;12.36;100.00;100264.75;5110355;27;20035;-64
2022/06/18 00:34:09;;;;;;;6.43;3.65;;;;;;;12.27;100.00;100276.31;5107420;28;20481;-64
2022/06/18 00:36:55;;;;;;;6.63;4.07;;;;;;;12.31;100.00;100270.09;5105654;28;20626;-64
2022/06/18 00:39:39;;;;;;;4.93;3.95;;;;;;;12.18;100.00;100259.94;5112662;27;20032;-63
2022/06/18 00:42:30;;;;;;;4.88;4.30;;;;;;;12.18;100.00;100263.41;5103497;27;20043;-63
2022/06/18 00:45:20;;;;;;;8.00;4.65;;;;;;;12.22;100.00;100262.47;5103848;27;20146;-65
2022/06/18 00:48:16;;;;;;;5.25;3.95;;;;;;;12.06;100.00;100254.09;5102959;28;20040;-63
2022/06/18 00:51:09;;;;;;;7.28;4.38;;;;;;;12.18;100.00;100257.31;5108414;27;20051;-63
2022/06/18 00:54:02;;;;;;;7.65;3.97;;;;;;;12.12;100.00;100264.44;5104840;28;20509;-63
2022/06/18 00:57:04;;;;;;;5.10;4.10;;;;;;;12.18;100.00;100255.53;5109771;27;20035;-62
2022/06/18 00:59:54;;;;;;;5.07;3.83;;;;;;;12.14;100.00;100252.13;5104980;27;20036;-63
2022/06/18 01:02:45;;;;;;;8.57;3.95;;;;;;;12.11;100.00;100256.59;5110674;27;20054;-62
2022/06/18 01:05:39;;;;;;;5.30;3.83;;;;;;;12.16;100.00;100257.34;5111164;27;20423;-61
2022/06/18 01:08:26;;;;;;;;;;;;;;;12.22;100.00;100248.44;5111676;27;20039;-61
2022/06/18 01:11:18;;;;;;;4.55;3.67;;;;;;;12.31;100.00;100250.84;5107562;27;20513;-61
2022/06/18 01:14:05;;;;;;;8.35;4.00;;;;;;;12.18;100.00;100260.78;5106585;27;20048;-61
2022/06/18 01:16:56;;;;;;;9.88;4.22;;;;;;;12.40;100.00;100255.88;5107984;27;20383;-60
2022/06/18 01:19:50;;;;;;;8.82;4.18;;;;;;;12.36;100.00;100248.97;5107482;28;20044;-61
2022/06/18 01:23:05;;;;;;;4.47;3.42;;;;;;;12.53;100.00;100243.28;5133034;27;20039;-61
2022/06/18 01:25:52;;;;;;;5.93;4.15;;;;;;;12.61;100.00;100241.34;5039098;27;20067;-60
2022/06/18 01:28:37;;;;;;;5.90;3.75;;;;;;;12.61;100.00;100228.19;5115850;27;20473;-61
2022/06/18 01:31:21;;;;;;;5.40;3.90;;;;;;;12.63;100.00;100227.22;5103859;28;20381;-60
2022/06/18 01:34:09;;;;;;;5.38;3.67;;;;;;;12.77;100.00;100239.13;5104585;27;20040;-61
2022/06/18 01:37:00;;;;;;;7.10;4.50;;;;;;;12.78;100.00;100236.47;5106735;28;20040;-59
2022/06/18 01:39:47;;;;;;;4.78;3.20;;;;;;;12.83;100.00;100234.56;5104864;27;20044;-60
2022/06/18 01:42:39;;;;;;;6.35;4.13;;;;;;;12.89;100.00;100233.53;5105875;27;20047;-60
2022/06/18 01:45:29;;;;;;;5.68;4.18;;;;;;;12.88;100.00;100226.56;5111937;27;20051;-59
2022/06/18 01:48:21;;;;;;;7.45;4.03;;;;;;;12.91;100.00;100217.75;5106868;27;20436;-60
2022/06/18 01:51:24;;;;;;;5.15;3.58;;;;;;;13.01;100.00;100225.31;5106828;27;20273;-60
2022/06/18 01:54:19;;;;;;;3.78;3.40;;;;;;;13.01;100.00;100220.06;5129917;27;20035;-61
2022/06/18 01:57:13;;;;;;;5.68;3.78;;;;;;;13.03;100.00;100218.25;5108159;27;20374;-61
2022/06/18 02:00:07;;;;;;;5.38;3.42;;;;;;;13.11;100.00;100223.28;5104172;27;20032;-61
2022/06/18 02:03:10;;;;;;;4.97;3.58;;;;;;;13.16;100.00;100212.63;5106041;27;20448;-61
2022/06/18 02:05:55;;;;;;;6.47;3.78;;;;;;;13.19;100.00;100215.16;5106091;27;20063;-61
2022/06/18 02:08:40;;;;;;;4.88;3.45;;;;;;;13.10;100.00;100216.31;5106457;27;20040;-61
2022/06/18 02:11:24;;;;;;;4.30;3.45;;;;;;;13.19;100.00;100215.16;5107334;27;20043;-61
2022/06/18 02:14:14;;;;;;;5.10;3.58;;;;;;;13.10;100.00;100211.06;5106843;27;20039;-62
2022/06/18 02:17:02;;;;;;;5.18;3.47;;;;;;;13.06;100.00;100206.75;5109080;27;20036;-62
2022/06/18 02:19:52;;;;;;;4.78;3.38;;;;;;;13.14;100.00;100202.16;5104104;27;20199;-62
2022/06/18 02:22:41;;;;;;;6.35;3.38;;;;;;;13.21;100.00;100198.44;5107497;28;20080;-62
2022/06/18 02:25:30;;;;;;;4.60;3.33;;;;;;;13.28;100.00;100207.03;5103261;28;20482;-62
2022/06/18 02:28:25;;;;;;;3.70;3.08;;;;;;;13.29;100.00;100214.91;5103646;27;20036;-62
2022/06/18 02:31:17;;;;;;;3.88;3.38;;;;;;;13.35;100.00;100202.44;5104017;28;20089;-62
2022/06/18 02:34:05;;;;;;;5.95;4.00;;;;;;;13.39;100.00;100209.34;5102772;27;20047;-62
2022/06/18 02:36:49;;;;;;;4.28;3.30;;;;;;;13.38;100.00;100212.88;5104798;28;20048;-62
2022/06/18 02:39:55;;;;;;;4.22;3.10;;;;;;;13.44;100.00;100207.44;5103116;27;20039;-62
2022/06/18 02:42:40;;;;;;;4.22;3.33;;;;;;;13.44;100.00;100199.56;5103855;27;20047;-62
2022/06/18 02:45:29;;;;;;;5.60;3.85;;;;;;;13.46;100.00;100208.28;5104943;28;20118;-61
2022/06/18 02:48:14;;;;;;;4.25;3.58;;;;;;;13.51;100.00;100203.72;5106684;27;20043;-62
2022/06/18 02:51:00;;;;;;;6.07;3.78;;;;;;;13.47;100.00;100213.47;5105512;27;20039;-62
2022/06/18 02:53:45;;;;;;;4.15;3.50;;;;;;;13.56;100.00;100210.56;5103692;27;20067;-61
2022/06/18 02:56:29;;;;;;;5.00;3.40;;;;;;;13.68;100.00;100209.31;5102801;27;20039;-61
2022/06/18 02:59:14;;;;;;;4.75;3.42;;;;;;;13.68;100.00;100204.06;5100140;28;20399;-62
2022/06/18 03:01:59;;;;;;;4.35;3.63;;;;;;;13.81;100.00;100212.41;5097362;28;20039;-61
2022/06/18 03:04:43;;;;;;;5.85;3.50;;;;;;;13.78;100.00;100208.13;5101804;27;20044;-61
2022/06/18 03:07:28;;;;;;;5.80;3.35;;;;;;;13.85;100.00;100207.94;5099496;27;20138;-62
2022/06/18 03:13:18;;;;;;;5.05;3.05;;;;;;;13.91;100.00;100202.44;5105954;28;20067;-61
2022/06/18 03:16:06;;;;;;;4.57;3.35;;;;;;;14.00;100.00;100199.50;5101759;28;20032;-62
2022/06/18 03:18:55;;;;;;;4.60;3.50;;;;;;;13.97;100.00;100200.50;5100677;28;20043;-61
2022/06/18 03:21:50;;;;;;;4.13;3.22;;;;;;;14.09;100.00;100209.75;5110631;28;20834;-62
2022/06/18 03:24:35;;;;;;;4.78;3.30;;;;;;;14.18;100.00;100206.81;5106356;28;20035;-62
2022/06/18 03:27:21;;;;;;;4.15;3.60;;;;;;;14.20;100.00;100204.13;5109234;28;20035;-62
2022/06/18 03:30:11;;;;;;;5.65;3.17;;;;;;;14.24;100.00;100203.97;5103213;28;20076;-62
2022/06/18 03:32:56;;;;;;;5.13;3.08;;;;;;;14.31;100.00;100207.25;5107469;28;20035;-62
2022/06/18 03:35:44;;;;;;;6.82;3.88;;;;;;;14.33;100.00;100199.28;5103201;28;20135;-61
2022/06/18 03:38:29;;;;;;;5.18;3.75;;;;;;;14.26;100.00;100201.28;5104167;28;20414;-61
2022/06/18 03:41:15;;;;;;;5.65;3.70;;;;;;;14.23;100.00;100197.00;5104433;28;20040;-62
2022/06/18 03:44:00;;;;;;;6.15;4.05;;;;;;;14.35;100.00;100202.75;5101920;28;20051;-61
2022/06/18 03:46:48;;;;;;;7.63;5.18;;;;;;;14.27;100.00;100189.84;5099713;28;20032;-61
2022/06/18 03:49:40;;;;;;;8.38;4.38;;;;;;;14.49;100.00;100201.38;5108572;28;20036;-61
2022/06/18 03:52:24;;;;;;;7.25;4.68;;;;;;;14.49;100.00;100206.63;5104983;28;20040;-61
2022/06/18 03:55:12;;;;;;;5.35;3.97;;;;;;;14.57;100.00;100195.84;5105275;28;20039;-61
2022/06/18 03:57:56;;;;;;;6.65;4.45;;;;;;;14.77;100.00;100195.13;5116056;27;20097;-61
2022/06/18 04:00:41;;;;;;;4.85;3.97;;;;;;;14.68;100.00;100187.53;5102805;27;20044;-61
2022/06/18 04:03:26;;;;;;;4.30;3.63;;;;;;;14.91;100.00;100189.34;5102023;27;20491;-60
2022/06/18 04:06:15;;;;;;;4.65;3.97;;;;;;;14.95;100.00;100186.56;5103531;28;20047;-60
2022/06/18 04:09:00;;;;;;;4.70;3.53;;;;;;;14.98;100.00;100184.69;5103307;27;20054;-60
2022/06/18 04:11:46;;;;;;;4.68;3.38;;;;;;;15.18;100.00;100188.34;5101293;27;20035;-61
2022/06/18 04:14:30;;;;;;;4.00;2.88;;;;;;;15.30;100.00;100181.72;5105607;27;20052;-61
2022/06/18 04:17:33;;;;;;;7.38;3.70;;;;;;;15.36;100.00;100191.16;5107191;27;20043;-61
2022/06/18 04:20:34;;;;;;;5.60;4.22;;;;;;;15.31;100.00;100193.16;5103274;27;20047;-61
2022/06/18 04:23:21;;;;;;;4.50;3.00;;;;;;;15.40;100.00;100187.50;5107876;27;20428;-61
2022/06/18 04:26:05;;;;;;;3.92;2.88;;;;;;;15.45;100.00;100187.31;5104163;27;20497;-61
2022/06/18 04:28:51;;;;;;;4.63;3.10;;;;;;;15.35;100.00;100182.41;5104225;27;20052;-61
2022/06/18 04:31:36;;;;;;;4.32;2.97;;;;;;;15.52;100.00;100184.38;5113426;27;20063;-61
2022/06/18 04:34:21;;;;;;;2.90;2.60;;;;;;;15.69;100.00;100190.78;5107157;27;20118;-61
2022/06/18 04:37:20;;;;;;;6.00;2.88;;;;;;;15.66;100.00;100183.81;5102416;27;20052;-61
2022/06/18 04:40:34;;;;;;;6.10;3.00;;;;;;;15.99;100.00;100186.94;5103116;28;20039;-61
2022/06/18 04:43:47;;;;;;;4.25;2.70;;;;;;;15.86;100.00;100191.84;5100937;28;20055;-61
2022/06/18 04:46:33;;;;;;;4.47;2.97;;;;;;;15.92;100.00;100179.28;5105384;27;20056;-61
2022/06/18 04:49:18;;;;;;;5.47;3.08;;;;;;;16.07;100.00;100184.81;5106111;27;20043;-61
2022/06/18 04:52:03;;;;;;;4.78;2.60;;;;;;;16.12;100.00;100185.50;5103047;27;20043;-61
2022/06/18 04:54:59;;;;;;;3.65;2.85;;;;;;;16.16;100.00;100182.72;5106355;27;20851;-61
2022/06/18 04:57:45;;;;;;;3.42;2.67;;;;;;;16.59;100.00;100173.78;5107880;27;20119;-61
2022/06/18 05:00:29;;;;;;;5.90;2.90;;;;;;;16.70;100.00;100171.50;5103728;27;20040;-62
2022/06/18 05:03:33;;;;;;;4.55;2.90;;;;;;;16.85;100.00;100172.66;5104026;27;20054;-62
2022/06/18 05:06:21;;;;;;;3.05;2.67;;;;;;;17.23;100.00;100165.63;5116228;27;20067;-61
2022/06/18 05:09:26;;;;;;;3.90;2.60;;;;;;;17.34;100.00;100172.19;5075628;27;20501;-62
2022/06/18 05:12:25;;;;;;;4.07;3.20;;;;;;;17.25;100.00;100170.81;5107129;27;20556;-62
2022/06/18 05:15:17;;;;;;;3.50;2.40;;;;;;;17.42;100.00;100172.66;5107886;27;20050;-62
2022/06/18 05:18:02;;;;;;;3.55;2.20;;;;;;;17.89;100.00;100172.19;5106557;27;20035;-62
2022/06/18 05:20:52;;;;;;;4.97;2.50;;;;;;;17.98;100.00;100182.34;5106533;27;20570;-62
2022/06/18 05:23:38;;;;;;;5.32;3.33;;;;;;;18.03;100.00;100180.31;5111834;27;20046;-62
2022/06/18 05:26:24;;;;;;;5.05;2.55;;;;;;;17.86;100.00;100178.50;5106611;27;20043;-62
2022/06/18 05:29:10;;;;;;;3.72;2.42;;;;;;;17.98;100.00;100169.94;5111704;27;20051;-62
2022/06/18 05:31:55;;;;;;;3.83;2.63;;;;;;;17.89;100.00;100164.25;5092494;28;20043;-62
2022/06/18 05:34:43;;;;;;;2.65;1.80;;;;;;;18.15;100.00;100170.91;5091477;27;20035;-62
2022/06/18 05:37:32;;;;;;;2.22;1.83;;;;;;;17.97;100.00;100175.31;5104256;27;20036;-63
2022/06/18 05:40:16;;;;;;;2.88;2.00;;;;;;;18.92;100.00;100173.94;5105221;27;20922;-63
2022/06/18 05:43:02;;;;;;;3.20;2.50;;;;;;;19.34;100.00;100167.25;5109763;27;20039;-63
2022/06/18 05:45:47;;;;;;;3.50;2.30;;;;;;;19.66;100.00;100153.09;5102345;28;20032;-63
2022/06/18 05:48:31;;;;;;;3.40;2.22;;;;;;;19.66;100.00;100164.59;5104753;28;20047;-63
2022/06/18 05:51:17;;;;;;;4.10;2.22;;;;;;;19.83;100.00;100172.47;5103902;27;20039;-63
2022/06/18 05:54:03;;;;;;;2.75;2.00;;;;;;;20.65;100.00;100167.66;5087162;28;20494;-64
2022/06/18 05:57:02;;;;;;;2.08;1.63;;;;;;;21.12;100.00;100153.19;5101971;27;20470;-64
2022/06/18 06:00:13;;;;;;;2.53;1.70;;;;;;;20.74;100.00;100153.81;5102801;27;20039;-64
2022/06/18 06:02:58;;;;;;;4.28;1.75;;;;;;;20.28;100.00;100157.41;5102854;27;20948;-64
2022/06/18 06:05:42;;;;;;;2.08;1.80;;;;;;;21.22;100.00;100147.19;5105375;27;20036;-63
2022/06/18 06:08:27;;;;;;;4.20;1.92;;;;;;;20.77;100.00;100146.47;5102432;28;20111;-64
2022/06/18 06:11:30;;;;;;;4.75;2.00;;;;;;;20.74;100.00;100153.81;5115367;27;20040;-63
2022/06/18 06:14:23;;;;;;;2.92;1.58;;;;;;;22.25;100.00;100145.78;5098839;28;20043;-64
2022/06/18 06:17:14;;;;;;;2.78;1.88;;;;;;;22.07;100.00;100136.38;5100608;28;20036;-64
2022/06/18 06:20:05;;;;;;;2.03;1.23;;;;;;;21.87;100.00;100127.88;5128012;27;20046;-64
2022/06/18 06:22:50;;;;;;;3.70;1.23;;;;;;;21.96;100.00;100129.06;5103128;27;20047;-64
2022/06/18 06:25:37;;;;;;;5.32;1.38;;;;;;;21.56;100.00;100130.88;5110968;27;20039;-64
2022/06/18 06:28:24;;;;;;;1.23;1.13;;;;;;;21.73;100.00;100135.94;5103623;28;20040;-63
2022/06/18 06:31:09;;;;;;;2.90;1.50;;;;;;;22.23;100.00;100141.50;5104927;27;20064;-63
2022/06/18 06:33:53;;;;;;;2.17;1.40;;;;;;;21.56;100.00;100134.38;5103728;28;20572;-63
2022/06/18 06:36:39;;;;;;;1.67;1.30;;;;;;;21.29;100.00;100126.34;5104122;27;20055;-62
2022/06/18 06:39:23;;;;;;;2.70;1.35;;;;;;;20.98;100.00;100128.28;5102418;28;20047;-62
2022/06/18 06:42:09;;;;;;;2.83;1.40;;;;;;;21.44;100.00;100120.03;5102401;28;20039;-62
2022/06/18 06:44:54;;;;;;;3.72;1.20;;;;;;;21.21;100.00;100118.00;5101980;27;20060;-62
2022/06/18 06:47:39;;;;;;;2.28;1.45;;;;;;;21.12;100.00;100098.13;5102486;28;20066;-61
2022/06/18 06:50:25;;;;;;;2.15;1.25;;;;;;;21.08;100.00;100096.63;5105702;27;20047;-61
2022/06/18 06:53:10;;;;;;;4.30;1.20;;;;;;;21.74;100.00;100105.66;5100585;28;20063;-62
2022/06/18 06:58:59;;;;;;;2.47;0.90;;;;;;;23.06;100.00;100113.44;5100509;28;20047;-62
2022/06/18 07:01:43;;;;;;;4.05;1.30;;;;;;;22.51;100.00;100117.31;5101908;28;20056;-63
2022/06/18 07:04:28;;;;;;;3.58;1.15;;;;;;;22.55;100.00;100115.28;5101000;28;20036;-62
2022/06/18 07:07:14;;;;;;;2.25;1.65;;;;;;;22.42;100.00;100119.78;5104065;27;20474;-62
2022/06/18 07:09:58;;;;;;;1.15;0.90;;;;;;;22.60;100.00;100114.00;5098701;28;20044;-62
2022/06/18 07:12:43;;;;;;;2.95;1.17;;;;;;;23.05;100.00;100102.88;5100405;28;20039;-63
2022/06/18 07:15:27;;;;;;;1.55;1.10;;;;;;;23.00;100.00;100089.84;5093621;28;20044;-63
2022/06/18 07:18:22;;;;;;;1.63;1.00;;;;;;;23.11;100.00;100089.06;5101384;28;20051;-63
2022/06/18 07:21:10;;;;;;;2.92;0.80;;;;;;;22.61;100.00;100097.03;5099444;28;20040;-63
2022/06/18 07:23:55;;;;;;;2.00;0.90;;;;;;;22.86;100.00;100084.59;5099940;28;20613;-64
2022/06/18 07:26:39;;;;;;;2.25;0.93;;;;;;;22.45;100.00;100091.06;5100755;28;20043;-61
2022/06/18 07:29:23;;;;;;;2.22;1.15;;;;;;;22.36;100.00;100092.56;5104903;27;20490;-64
2022/06/18 07:32:12;;;;;;;2.25;0.98;;;;;;;22.05;100.00;100088.44;5102287;27;20048;-62
2022/06/18 07:34:57;;;;;;;1.48;0.93;;;;;;;21.97;100.00;100076.59;5104911;27;20040;-63
2022/06/18 07:37:41;;;;;;;1.50;0.90;;;;;;;22.15;100.00;100089.56;5110972;28;20533;-64
2022/06/18 07:40:36;;;;;;;4.15;0.85;;;;;;;22.33;100.00;100089.25;5110010;27;20036;-64
2022/06/18 07:43:42;;;;;;;1.40;0.82;;;;;;;22.24;100.00;100081.88;5108856;27;20471;-63
2022/06/18 07:46:27;;;;;;;1.00;0.82;;;;;;;22.80;100.00;100093.91;5107355;27;20055;-63
2022/06/18 07:49:12;;;;;;;1.75;0.77;;;;;;;23.17;100.00;100088.63;5107588;27;20040;-64
2022/06/18 07:51:57;;;;;;;2.30;0.77;;;;;;;22.97;100.00;100091.88;5106767;28;20035;-63
2022/06/18 07:54:42;;;;;;;2.10;0.73;;;;;;;23.45;100.00;100097.28;5107117;27;20032;-63
2022/06/18 07:57:27;;;;;;;1.15;0.80;;;;;;;23.46;100.00;100104.31;5107338;27;20054;-64
2022/06/18 08:00:13;;;;;;;3.83;1.15;;;;;;;23.08;100.00;100097.31;5112172;27;20130;-63
2022/06/18 08:02:58;;;;;;;5.93;1.00;;;;;;;22.84;100.00;100108.72;5107851;28;20475;-62
2022/06/18 08:05:44;;;;;;;2.75;0.90;;;;;;;23.31;100.00;100107.16;5113058;27;20047;-62
2022/06/18 08:08:29;;;;;;;3.08;0.82;;;;;;;23.62;100.00;100085.31;5106069;27;20054;-63
2022/06/18 08:11:18;;;;;;;1.23;0.60;;;;;;;23.23;100.00;100103.34;5109081;28;20063;-64
2022/06/18 08:14:03;;;;;;;1.58;1.08;;;;;;;23.48;100.00;100092.56;5108563;27;20055;-63
2022/06/18 08:16:47;;;;;;;1.67;0.60;;;;;;;23.32;100.00;100106.19;5109543;27;20044;-63
2022/06/18 08:19:32;;;;;;;1.35;0.70;;;;;;;24.11;97.44;100103.88;5105353;27;20081;-64
2022/06/18 08:22:17;;;;;;;2.10;0.85;;;;;;;23.93;95.67;100091.91;5106966;27;20036;-63
2022/06/18 08:25:02;;;;;;;0.98;0.50;;;;;;;25.63;92.34;100095.31;5103619;28;20046;-64
2022/06/18 08:27:47;;;;;;;1.05;0.63;;;;;;;25.45;94.75;100095.97;5103250;27;20123;-65
2022/06/18 08:30:32;;;;;;;1.42;0.60;;;;;;;25.47;90.96;100091.34;5110277;27;20043;-63
2022/06/18 08:33:17;;;;;;;1.42;0.77;;;;;;;26.00;89.32;100083.34;5108028;27;20040;-63
2022/06/18 08:36:08;;;;;;;0.63;0.55;;;;;;;25.98;87.46;100077.28;5109551;27;20214;-63
2022/06/18 08:38:53;;;;;;;0.93;0.60;;;;;;;26.50;89.92;100073.66;5105801;27;20043;-62
2022/06/18 08:42:17;;;;;;;3.22;0.88;;;;;;;26.68;84.02;100062.25;5106453;28;20047;-64
2022/06/18 08:45:20;;;;;;;5.53;0.63;;;;;;;26.62;75.54;100044.88;5081462;28;20188;-63
2022/06/18 08:48:19;;;;;;;1.38;0.60;;;;;;;26.51;78.33;100047.63;5102490;27;20035;-63
2022/06/18 08:51:19;;;;;;;1.42;0.25;;;;;;;26.98;76.73;100046.09;5106125;27;20036;-63
2022/06/18 08:54:04;;;;;;;1.35;0.73;;;;;;;26.46;70.41;100031.91;5108258;27;20683;-63
2022/06/18 08:57:00;;;;;;;0.98;0.40;;;;;;;26.63;70.97;100024.22;5104519;27;20043;-65
2022/06/18 08:59:50;;;;;;;3.45;0.38;;;;;;;27.26;73.35;100024.81;5110908;27;20068;-64
2022/06/18 09:02:43;;;;;;;6.05;0.52;;;;;;;27.36;71.50;100027.50;5103473;27;20063;-63
2022/06/18 09:05:58;;;;;;;0.82;0.45;;;;;;;26.60;69.28;100016.44;5108687;27;20051;-62
2022/06/18 09:08:51;;;;;;;0.73;0.30;;;;;;;27.42;71.83;100027.78;5106102;27;20054;-63
2022/06/18 09:11:51;;;;;;;1.05;0.25;;;;;;;27.41;65.29;100027.94;5103287;27;20047;-64
2022/06/18 09:14:42;;;;;;;1.17;0.68;;;;;;;27.80;66.51;100020.72;5106629;27;20130;-65
2022/06/18 09:17:36;;;;;;;1.77;0.33;;;;;;;28.60;68.21;100003.22;5109821;27;20096;-64
2022/06/18 09:20:32;;;;;;;1.23;0.47;;;;;;;28.45;66.50;100017.31;5108500;27;20289;-63
2022/06/18 09:23:25;;;;;;;2.90;0.35;;;;;;;28.05;63.06;100018.41;5106828;27;20043;-63
2022/06/18 09:26:22;;;;;;;1.20;0.30;;;;;;;28.74;66.45;100003.69;5104829;27;20055;-62
2022/06/18 09:29:23;;;;;;;1.35;0.20;;;;;;;28.07;64.84;99998.41;5108108;27;20120;-63
2022/06/18 09:32:20;;;;;;;1.73;0.38;;;;;;;28.11;66.08;100010.59;5104439;27;20043;-64
2022/06/18 09:35:14;;;;;;;0.85;0.30;;;;;;;27.98;67.34;100001.13;5103229;27;20035;-65
2022/06/18 09:38:12;;;;;;;1.55;0.40;;;;;;;28.78;64.97;100002.41;5131245;27;20044;-66
2022/06/18 09:41:01;;;;;;;2.47;0.50;;;;;;;28.94;62.61;99997.19;5110756;27;20089;-65
2022/06/18 09:44:07;;;;;;;0.88;0.20;;;;;;;29.49;62.44;99996.22;5105098;27;20051;-64
2022/06/18 09:47:00;;;;;;;1.25;0.30;;;;;;;29.26;59.44;99988.63;5109095;27;20043;-66
2022/06/18 09:49:46;;;;;;;1.48;0.30;;;;;;;28.93;59.29;99989.25;5101031;28;20130;-65
2022/06/18 09:52:33;;;;;;;1.90;0.30;;;;;;;28.57;60.79;99987.34;5104467;27;20040;-65
2022/06/18 09:55:23;;;;;;;0.45;0.10;;;;;;;28.83;55.80;99978.56;5112492;27;20035;-64
2022/06/18 09:58:19;;;;;;;5.68;0.25;;;;;;;29.18;57.97;99980.44;5102663;28;20088;-64
2022/06/18 10:01:05;;;;;;;1.05;0.30;;;;;;;28.46;57.50;99968.69;5102708;27;20811;-64
2022/06/18 10:06:57;;;;;;;2.58;0.40;;;;;;;28.59;58.39;99952.16;5103263;27;20579;-65
2022/06/18 10:09:54;;;;;;;2.50;0.40;;;;;;;28.68;59.02;99963.88;5106204;27;20044;-64
2022/06/18 10:12:44;;;;;;;2.10;0.32;;;;;;;29.18;59.48;99971.50;5110745;27;20059;-65
2022/06/18 10:15:29;;;;;;;4.00;0.20;;;;;;;29.79;57.68;99967.97;5110110;27;20104;-64
2022/06/18 10:18:28;;;;;;;0.75;0.30;;;;;;;29.22;54.44;99964.81;5105058;27;20028;-65
2022/06/18 10:21:26;;;;;;;0.50;0.30;;;;;;;29.71;58.82;99955.28;5104534;27;20052;-65
2022/06/18 10:24:23;;;;;;;1.15;0.25;;;;;;;28.46;52.83;99941.75;5102782;27;20067;-66
2022/06/18 10:27:31;;;;;;;1.67;0.30;;;;;;;30.36;53.85;99946.72;5101969;27;20040;-64
2022/06/18 10:30:22;;;;;;;2.17;0.63;;;;;;;29.76;54.01;99939.44;5102666;28;20039;-64
2022/06/18 10:33:18;;;;;;;2.75;0.28;;;;;;;30.03;51.66;99943.84;5101189;28;20044;-64
2022/06/18 10:36:30;;;;;;;1.42;0.20;;;;;;;29.63;51.94;99941.72;5108616;27;20039;-63
2022/06/18 10:39:21;;;;;;;2.33;0.30;;;;;;;29.81;50.05;99926.34;5108849;27;20047;-63
2022/06/18 10:42:19;;;;;;;2.47;0.20;;;;;;;29.57;48.00;99920.75;5104969;27;20055;-63
2022/06/18 10:45:23;;;;;;;0.32;0.10;;;;;;;29.50;50.15;99928.63;5102064;27;20040;-64
2022/06/18 10:48:18;;;;;;;1.13;0.20;;;;;;;29.91;48.60;99914.59;5112043;27;20394;-65
2022/06/18 10:51:15;;;;;;;0.77;0.22;;;;;;;29.55;48.04;99902.03;5104525;27;20511;-66
2022/06/18 10:54:03;;;;;;;0.75;0.10;;;;;;;29.86;51.33;99912.34;5101274;27;20043;-64
2022/06/18 10:56:53;;;;;;;0.55;0.40;;;;;;;28.88;47.00;99925.03;5101628;27;20599;-64
2022/06/18 10:59:39;;;;;;;0.82;0.20;;;;;;;29.60;47.52;99912.38;5104335;27;20037;-64
2022/06/18 11:02:35;;;;;;;0.43;0.10;;;;;;;30.14;50.89;99907.63;5102243;27;20189;-65
2022/06/18 11:05:33;;;;;;;0.57;0.10;;;;;;;29.68;45.82;99904.34;5102480;28;20031;-63
2022/06/18 11:08:22;;;;;;;0.85;0.20;;;;;;;29.57;45.84;99909.94;5105203;28;20074;-65
2022/06/18 11:11:13;;;;;;;0.38;0.10;;;;;;;29.84;46.60;99900.88;5098878;27;20742;-65
2022/06/18 11:14:15;;;;;;;1.47;0.30;;;;;;;30.05;45.51;99904.00;5099144;28;20395;-63
2022/06/18 11:16:59;;;;;;;1.02;0.10;;;;;;;29.43;46.12;99897.03;5098913;28;20392;-63
2022/06/18 11:19:48;;;;;;;0.60;0.10;;;;;;;29.81;46.83;99893.13;5099928;28;20055;-64
2022/06/18 11:22:33;;;;;;;2.20;0.30;;;;;;;30.37;47.59;99888.16;5095749;28;20039;-64
2022/06/18 11:25:26;;;;;;;1.85;0.15;;;;;;;30.01;44.86;99889.16;5099997;28;20043;-63
2022/06/18 11:28:19;;;;;;;1.98;0.25;;;;;;;29.77;45.61;99887.19;5098807;28;20055;-65
2022/06/18 11:31:04;;;;;;;0.45;0.15;;;;;;;30.47;45.91;99873.47;5096921;28;20093;-63
2022/06/18 11:34:29;;;;;;;3.70;0.10;;;;;;;30.20;46.25;99880.00;5097416;28;20691;-63
2022/06/18 11:37:26;;;;;;;1.05;0.20;;;;;;;30.07;44.42;99876.88;5098005;28;20492;-64
2022/06/18 11:40:10;;;;;;;1.90;0.40;;;;;;;30.12;45.88;99868.28;5100063;28;20036;-64
2022/06/18 11:43:08;;;;;;;0.47;0.25;;;;;;;30.17;47.73;99865.94;5098759;28;20043;-61
2022/06/18 11:46:01;;;;;;;2.33;0.10;;;;;;;30.11;46.60;99867.44;5097685;28;20044;-63
2022/06/18 11:49:11;;;;;;;0.20;0.00;;;;;;;29.92;44.28;99859.59;5100896;28;20044;-62
2022/06/18 11:52:20;;;;;;;0.52;0.10;;;;;;;30.17;44.95;99852.44;5100531;28;20036;-63
2022/06/18 11:55:20;;;;;;;3.58;0.17;;;;;;;30.43;44.73;99849.69;5099280;28;20036;-63
2022/06/18 11:58:33;;;;;;;0.30;0.20;;;;;;;30.46;44.22;99844.78;5099226;28;20059;-64
2022/06/18 12:01:41;;;;;;;2.90;0.10;;;;;;;29.99;45.13;99839.88;5103859;28;20051;-64
2022/06/18 12:04:36;;;;;;;1.50;0.20;;;;;;;30.42;49.56;99837.16;5096206;28;20027;-64
2022/06/18 12:07:30;;;;;;;0.75;0.10;;;;;;;30.13;44.97;99824.91;5099268;28;20043;-64
2022/06/18 12:10:17;;;;;;;1.95;0.10;;;;;;;31.01;46.77;99815.47;5100577;28;20501;-63
2022/06/18 12:13:15;;;;;;;0.98;0.10;;;;;;;30.31;45.80;99816.72;5098982;28;20051;-63
2022/06/18 12:16:24;;;;;;;2.08;0.43;;;;;;;30.43;43.31;99811.84;5100855;27;20035;-63
2022/06/18 12:19:12;;;;;;;0.50;0.00;;;;;;;30.68;45.56;99807.31;5102548;28;20044;-63
2022/06/18 12:22:03;;;;;;;1.95;0.10;;;;;;;30.04;42.21;99798.91;5103597;27;20043;-61
2022/06/18 12:25:09;;;;;;;0.17;0.07;;;;;;;31.06;44.45;99795.00;5108088;27;20048;-64
2022/06/18 12:28:16;;;;;;;0.32;0.10;;;;;;;31.27;47.14;99794.47;5103517;27;20059;-65
2022/06/18 12:31:10;;;;;;;5.15;0.40;;;;;;;30.19;44.65;99782.91;5106170;27;20501;-62
2022/06/18 12:34:42;;;;;;;1.27;0.30;;;;;;;30.30;43.39;99795.28;5102878;27;20040;-64
2022/06/18 12:37:35;;;;;;;3.28;0.10;;;;;;;30.28;45.21;99790.03;5038150;28;20516;-63
2022/06/18 12:40:30;;;;;;;1.27;0.30;;;;;;;30.09;44.07;99782.19;5104362;27;20044;-63
2022/06/18 12:43:47;;;;;;;3.05;0.10;;;;;;;30.27;43.55;99783.78;5102564;28;20073;-63
2022/06/18 12:46:59;;;;;;;0.85;0.10;;;;;;;30.49;43.76;99776.06;5082176;27;20051;-63
2022/06/18 12:50:05;;;;;;;1.75;0.30;;;;;;;30.77;43.55;99767.66;5102067;27;20051;-64
2022/06/18 12:53:15;;;;;;;1.45;0.20;;;;;;;30.08;43.50;99767.84;5105767;28;20631;-61
2022/06/18 12:56:09;;;;;;;0.85;0.20;;;;;;;30.45;45.01;99777.41;5107035;28;20199;-63
2022/06/18 12:59:01;;;;;;;2.28;0.30;;;;;;;30.51;45.29;99772.16;5103523;27;20032;-63
2022/06/18 13:02:02;;;;;;;3.42;0.43;;;;;;;30.43;44.84;99768.63;5103933;27;20040;-63
2022/06/18 13:05:01;;;;;;;1.95;0.30;;;;;;;29.74;44.27;99774.16;5105883;27;20044;-62
2022/06/18 13:08:05;;;;;;;2.08;0.10;;;;;;;30.53;44.59;99766.59;5104783;27;20090;-62
2022/06/18 13:11:13;;;;;;;0.38;0.10;;;;;;;29.96;43.68;99756.50;5102255;27;20131;-62
2022/06/18 13:14:10;;;;;;;2.13;0.25;;;;;;;29.58;44.64;99750.63;5104538;27;20538;-61
2022/06/18 13:17:05;;;;;;;1.20;0.20;;;;;;;30.04;46.20;99756.53;5111787;27;20031;-63
2022/06/18 13:20:00;;;;;;;2.58;0.17;;;;;;;29.80;43.35;99757.31;5103928;27;20031;-62
2022/06/18 13:22:45;;;;;;;1.50;0.20;;;;;;;30.36;45.37;99749.53;5108033;27;20044;-64
2022/06/18 13:28:36;;;;;;;0.63;0.10;;;;;;;29.51;43.70;99744.19;5106425;27;20048;-64